createdAt,value
2022-10-23T00:00:56.040Z,12.50
2022-10-23T00:01:57.442Z,12.50
2022-10-23T00:02:59.676Z,12.50
2022-10-23T00:04:07.036Z,12.50
2022-10-23T00:05:08.906Z,12.50
2022-10-23T00:06:11.171Z,12.50
2022-10-23T00:07:12.790Z,12.50
2022-10-23T00:08:14.348Z,12.60
2022-10-23T00:09:19.066Z,12.50
2022-10-23T00:10:21.563Z,12.60
2022-10-23T00:11:26.025Z,12.60
2022-10-23T00:12:28.299Z,12.60
2022-10-23T00:13:29.735Z,12.50
2022-10-23T00:14:31.361Z,12.60
2022-10-23T00:15:35.732Z,12.50
2022-10-23T00:16:37.462Z,12.60
2022-10-23T00:17:39.394Z,12.60
2022-10-23T00:18:41.651Z,12.60
2022-10-23T00:19:43.001Z,12.50
2022-10-23T00:20:44.388Z,12.50
2022-10-23T00:21:45.770Z,12.50
2022-10-23T00:22:47.772Z,12.50
2022-10-23T00:23:49.167Z,12.50
2022-10-23T00:24:50.984Z,12.60
2022-10-23T00:25:52.607Z,12.60
2022-10-23T00:26:53.995Z,12.50
2022-10-23T00:27:55.391Z,12.50
2022-10-23T00:28:57.042Z,12.60
2022-10-23T00:29:58.647Z,12.50
2022-10-23T00:31:04.493Z,12.60
2022-10-23T00:32:05.901Z,12.60
2022-10-23T00:33:07.298Z,12.60
2022-10-23T00:34:09.242Z,12.60
2022-10-23T00:35:10.674Z,12.60
2022-10-23T00:36:13.979Z,12.60
2022-10-23T00:37:18.153Z,12.60
2022-10-23T00:38:19.562Z,12.60
2022-10-23T00:39:21.804Z,12.60
2022-10-23T00:40:23.501Z,12.50
2022-10-23T00:41:32.291Z,12.50
2022-10-23T00:42:33.914Z,12.40
2022-10-23T00:43:56.330Z,12.50
2022-10-23T00:45:25.607Z,12.50
2022-10-23T00:46:27.305Z,12.50
2022-10-23T00:47:28.942Z,12.50
2022-10-23T00:48:30.382Z,12.50
2022-10-23T00:49:34.468Z,12.50
2022-10-23T00:50:36.228Z,12.50
2022-10-23T00:51:52.573Z,12.50
2022-10-23T00:52:56.094Z,12.50
2022-10-23T00:54:22.813Z,12.50
2022-10-23T00:55:23.681Z,12.50
2022-10-23T00:56:26.359Z,12.50
2022-10-23T00:58:30.602Z,12.50
2022-10-23T00:59:32.994Z,12.50
2022-10-23T01:00:47.625Z,12.50
2022-10-23T01:01:49.275Z,12.50
2022-10-23T01:02:51.726Z,12.60
2022-10-23T01:03:54.072Z,12.60
2022-10-23T01:04:55.543Z,12.50
2022-10-23T01:06:20.387Z,12.60
2022-10-23T01:07:35.601Z,12.50
2022-10-23T01:08:54.307Z,12.50
2022-10-23T01:10:18.477Z,12.50
2022-10-23T01:11:29.997Z,12.50
2022-10-23T01:12:46.733Z,12.50
2022-10-23T01:14:13.035Z,12.50
2022-10-23T01:15:26.502Z,12.50
2022-10-23T01:16:46.718Z,12.50
2022-10-23T01:17:55.622Z,12.50
2022-10-23T01:19:07.588Z,12.50
2022-10-23T01:20:23.890Z,12.50
2022-10-23T01:21:40.141Z,12.50
2022-10-23T01:23:13.539Z,12.50
2022-10-23T01:25:03.031Z,12.50
2022-10-23T01:26:23.093Z,12.40
2022-10-23T01:27:28.818Z,12.40
2022-10-23T01:28:42.393Z,12.40
2022-10-23T01:30:01.621Z,12.30
2022-10-23T01:31:14.734Z,12.30
2022-10-23T01:32:35.606Z,12.40
2022-10-23T01:33:44.871Z,12.40
2022-10-23T01:34:49.066Z,12.30
2022-10-23T01:36:06.754Z,12.40
2022-10-23T01:37:12.893Z,12.30
2022-10-23T01:38:21.760Z,12.40
2022-10-23T01:39:31.308Z,12.30
2022-10-23T01:40:50.612Z,12.30
2022-10-23T01:42:06.731Z,12.30
2022-10-23T01:43:16.548Z,12.30
2022-10-23T01:44:22.430Z,12.30
2022-10-23T01:45:34.202Z,12.30
2022-10-23T01:46:37.375Z,12.30
2022-10-23T01:47:44.147Z,12.20
2022-10-23T01:48:52.468Z,12.30
2022-10-23T01:49:57.093Z,12.20
2022-10-23T01:51:01.667Z,12.30
2022-10-23T01:52:07.166Z,12.30
2022-10-23T01:53:09.072Z,12.30
2022-10-23T01:54:14.606Z,12.30
2022-10-23T01:55:17.960Z,12.30
2022-10-23T01:56:25.280Z,12.30
2022-10-23T01:57:30.672Z,12.30
2022-10-23T01:58:34.881Z,12.30
2022-10-23T01:59:44.715Z,12.30
2022-10-23T02:00:47.070Z,12.30
2022-10-23T02:01:52.805Z,12.30
2022-10-23T02:02:56.125Z,12.30
2022-10-23T02:04:08.096Z,12.30
2022-10-23T02:05:17.106Z,12.30
2022-10-23T02:06:19.027Z,12.30
2022-10-23T02:07:20.556Z,12.30
2022-10-23T02:08:22.334Z,12.30
2022-10-23T02:09:24.110Z,12.30
2022-10-23T02:10:39.467Z,12.40
2022-10-23T02:11:55.094Z,12.40
2022-10-23T02:13:07.274Z,12.40
2022-10-23T02:14:18.903Z,12.40
2022-10-23T02:15:31.788Z,12.30
2022-10-23T02:16:51.816Z,12.30
2022-10-23T02:18:11.811Z,12.30
2022-10-23T02:19:19.035Z,12.40
2022-10-23T02:20:40.956Z,12.40
2022-10-23T02:21:57.865Z,12.40
2022-10-23T02:23:04.760Z,12.30
2022-10-23T02:24:11.509Z,12.30
2022-10-23T02:25:21.757Z,12.20
2022-10-23T02:26:27.974Z,12.20
2022-10-23T02:27:42.258Z,12.20
2022-10-23T02:28:49.762Z,12.20
2022-10-23T02:30:01.984Z,12.30
2022-10-23T02:31:08.161Z,12.20
2022-10-23T02:32:11.029Z,12.20
2022-10-23T02:33:16.314Z,12.20
2022-10-23T02:34:18.881Z,12.20
2022-10-23T02:35:22.428Z,12.10
2022-10-23T02:36:29.377Z,12.10
2022-10-23T02:37:30.971Z,12.10
2022-10-23T02:38:40.677Z,12.10
2022-10-23T02:39:42.284Z,12.10
2022-10-23T02:40:45.322Z,12.10
2022-10-23T02:42:05.331Z,12.10
2022-10-23T02:43:31.048Z,12.10
2022-10-23T02:44:50.584Z,12.10
2022-10-23T02:46:18.547Z,12.00
2022-10-23T02:47:42.592Z,12.00
2022-10-23T02:49:11.240Z,12.00
2022-10-23T02:50:13.025Z,11.90
2022-10-23T02:51:40.598Z,12.00
2022-10-23T02:53:09.431Z,12.10
2022-10-23T02:54:32.029Z,12.10
2022-10-23T02:55:51.823Z,12.10
2022-10-23T02:57:06.035Z,12.10
2022-10-23T02:58:19.335Z,12.00
2022-10-23T02:59:40.116Z,12.00
2022-10-23T03:00:49.268Z,12.00
2022-10-23T03:01:57.587Z,12.00
2022-10-23T03:03:14.455Z,11.90
2022-10-23T03:04:18.397Z,11.90
2022-10-23T03:05:24.688Z,11.90
2022-10-23T03:06:26.535Z,11.90
2022-10-23T03:07:28.525Z,11.90
2022-10-23T03:08:49.920Z,11.90
2022-10-23T03:09:53.351Z,11.90
2022-10-23T03:10:56.231Z,11.90
2022-10-23T03:11:58.412Z,11.90
2022-10-23T03:12:59.892Z,11.90
2022-10-23T03:14:04.680Z,11.90
2022-10-23T03:15:07.664Z,11.90
2022-10-23T03:16:09.462Z,11.90
2022-10-23T03:17:11.134Z,11.80
2022-10-23T03:18:12.770Z,11.80
2022-10-23T03:19:15.843Z,11.90
2022-10-23T03:20:17.783Z,11.80
2022-10-23T03:21:20.091Z,11.80
2022-10-23T03:22:26.237Z,11.80
2022-10-23T03:23:27.954Z,11.90
2022-10-23T03:24:29.397Z,11.90
2022-10-23T03:25:31.431Z,11.90
2022-10-23T03:26:33.725Z,11.90
2022-10-23T03:27:35.650Z,11.80
2022-10-23T03:28:39.861Z,11.80
2022-10-23T03:29:41.269Z,11.80
2022-10-23T03:30:42.657Z,11.90
2022-10-23T03:31:44.564Z,11.90
2022-10-23T03:32:46.356Z,11.80
2022-10-23T03:33:47.772Z,11.80
2022-10-23T03:34:49.558Z,11.80
2022-10-23T03:35:51.057Z,11.80
2022-10-23T03:36:52.593Z,11.80
2022-10-23T03:37:55.289Z,11.90
2022-10-23T03:39:00.208Z,11.80
2022-10-23T03:40:01.983Z,11.80
2022-10-23T03:41:05.945Z,11.80
2022-10-23T03:42:07.417Z,11.80
2022-10-23T03:43:08.990Z,11.80
2022-10-23T03:44:12.544Z,11.80
2022-10-23T03:45:18.662Z,11.70
2022-10-23T03:46:20.049Z,11.70
2022-10-23T03:47:24.833Z,11.70
2022-10-23T03:48:26.366Z,11.70
2022-10-23T03:49:32.249Z,11.70
2022-10-23T03:50:38.854Z,11.70
2022-10-23T03:51:41.743Z,11.70
2022-10-23T03:52:43.566Z,11.70
2022-10-23T03:53:47.169Z,11.70
2022-10-23T03:54:50.257Z,11.70
2022-10-23T03:55:52.208Z,11.70
2022-10-23T03:56:57.369Z,11.60
2022-10-23T03:58:00.284Z,11.60
2022-10-23T03:59:01.954Z,11.70
2022-10-23T04:00:05.766Z,11.70
2022-10-23T04:01:17.756Z,11.70
2022-10-23T04:02:21.001Z,11.70
2022-10-23T04:03:22.482Z,11.70
2022-10-23T04:04:24.066Z,11.70
2022-10-23T04:05:25.525Z,11.70
2022-10-23T04:06:30.114Z,11.70
2022-10-23T04:07:33.120Z,11.70
2022-10-23T04:08:37.590Z,11.70
2022-10-23T04:09:44.779Z,11.60
2022-10-23T04:10:50.288Z,11.60
2022-10-23T04:11:56.532Z,11.60
2022-10-23T04:13:01.894Z,11.60
2022-10-23T04:14:06.998Z,11.60
2022-10-23T04:15:12.604Z,11.60
2022-10-23T04:16:16.402Z,11.60
2022-10-23T04:17:19.225Z,11.60
2022-10-23T04:18:24.020Z,11.60
2022-10-23T04:19:25.561Z,11.50
2022-10-23T04:20:30.101Z,11.60
2022-10-23T04:21:35.521Z,11.60
2022-10-23T04:22:36.877Z,11.60
2022-10-23T04:23:39.014Z,11.60
2022-10-23T04:24:47.955Z,11.60
2022-10-23T04:25:56.863Z,11.60
2022-10-23T04:26:59.608Z,11.50
2022-10-23T04:28:04.075Z,11.60
2022-10-23T04:29:10.741Z,11.50
2022-10-23T04:30:12.699Z,11.60
2022-10-23T04:31:14.242Z,11.60
2022-10-23T04:32:17.110Z,11.60
2022-10-23T04:33:19.490Z,11.60
2022-10-23T04:34:24.026Z,11.60
2022-10-23T04:35:27.677Z,11.60
2022-10-23T04:36:29.630Z,11.50
2022-10-23T04:37:36.018Z,11.60
2022-10-23T04:38:37.537Z,11.60
2022-10-23T04:39:40.803Z,11.60
2022-10-23T04:40:42.356Z,11.60
2022-10-23T04:41:44.170Z,11.60
2022-10-23T04:42:45.783Z,11.60
2022-10-23T04:43:48.034Z,11.60
2022-10-23T04:44:50.389Z,11.60
2022-10-23T04:45:51.864Z,11.50
2022-10-23T04:46:54.525Z,11.60
2022-10-23T04:47:57.690Z,11.50
2022-10-23T04:49:00.483Z,11.50
2022-10-23T04:50:20.504Z,11.50
2022-10-23T04:51:44.483Z,11.50
2022-10-23T04:53:03.474Z,11.50
2022-10-23T04:54:19.905Z,11.50
2022-10-23T04:55:31.891Z,11.60
2022-10-23T04:56:53.258Z,11.60
2022-10-23T04:57:55.981Z,11.60
2022-10-23T04:58:59.719Z,11.70
2022-10-23T05:00:02.755Z,11.60
2022-10-23T05:01:11.210Z,11.60
2022-10-23T05:02:12.682Z,11.50
2022-10-23T05:03:15.327Z,11.60
2022-10-23T05:04:16.750Z,11.60
2022-10-23T05:05:38.685Z,11.70
2022-10-23T05:06:53.664Z,11.60
2022-10-23T05:08:08.263Z,11.60
2022-10-23T05:09:22.196Z,11.60
2022-10-23T05:10:34.878Z,11.60
2022-10-23T05:11:43.614Z,11.50
2022-10-23T05:12:45.045Z,11.60
2022-10-23T05:13:47.084Z,11.50
2022-10-23T05:14:48.464Z,11.50
2022-10-23T05:15:51.602Z,11.50
2022-10-23T05:17:00.478Z,11.50
2022-10-23T05:18:13.387Z,11.50
2022-10-23T05:19:24.142Z,11.50
2022-10-23T05:20:30.917Z,11.40
2022-10-23T05:21:35.848Z,11.40
2022-10-23T05:22:42.674Z,11.50
2022-10-23T05:23:46.705Z,11.50
2022-10-23T05:24:50.630Z,11.50
2022-10-23T05:25:55.630Z,11.60
2022-10-23T05:26:57.617Z,11.50
2022-10-23T05:27:59.358Z,11.50
2022-10-23T05:29:01.014Z,11.50
2022-10-23T05:30:02.691Z,11.50
2022-10-23T05:31:09.631Z,11.40
2022-10-23T05:32:16.045Z,11.40
2022-10-23T05:33:18.678Z,11.40
2022-10-23T05:34:23.248Z,11.40
2022-10-23T05:35:25.162Z,11.40
2022-10-23T05:36:27.666Z,11.40
2022-10-23T05:37:31.942Z,11.40
2022-10-23T05:38:42.190Z,11.40
2022-10-23T05:39:50.717Z,11.40
2022-10-23T05:40:53.548Z,11.40
2022-10-23T05:41:56.922Z,11.40
2022-10-23T05:42:59.903Z,11.40
2022-10-23T05:44:15.755Z,11.40
2022-10-23T05:45:55.589Z,11.30
2022-10-23T05:47:17.262Z,11.30
2022-10-23T05:48:46.133Z,11.30
2022-10-23T05:50:06.443Z,11.30
2022-10-23T05:51:22.904Z,11.30
2022-10-23T05:52:32.566Z,11.30
2022-10-23T05:53:46.983Z,11.30
2022-10-23T05:55:09.516Z,11.30
2022-10-23T05:56:39.316Z,11.30
2022-10-23T05:57:44.687Z,11.30
2022-10-23T05:58:48.430Z,11.30
2022-10-23T06:00:02.418Z,11.30
2022-10-23T06:01:17.414Z,11.30
2022-10-23T06:02:38.382Z,11.30
2022-10-23T06:03:47.670Z,11.30
2022-10-23T06:04:49.354Z,11.30
2022-10-23T06:06:08.039Z,11.30
2022-10-23T06:07:32.236Z,11.30
2022-10-23T06:08:38.178Z,11.30
2022-10-23T06:09:39.633Z,11.30
2022-10-23T06:10:41.413Z,11.30
2022-10-23T06:11:44.863Z,11.30
2022-10-23T06:12:52.204Z,11.30
2022-10-23T06:13:53.833Z,11.30
2022-10-23T06:14:55.978Z,11.30
2022-10-23T06:16:14.185Z,11.30
2022-10-23T06:17:16.090Z,11.30
2022-10-23T06:18:20.575Z,11.30
2022-10-23T06:19:28.876Z,11.40
2022-10-23T06:20:34.732Z,11.40
2022-10-23T06:21:42.584Z,11.40
2022-10-23T06:22:46.704Z,11.30
2022-10-23T06:24:05.277Z,11.30
2022-10-23T06:25:17.371Z,11.30
2022-10-23T06:26:19.580Z,11.30
2022-10-23T06:27:41.209Z,11.30
2022-10-23T06:28:44.121Z,11.30
2022-10-23T06:29:45.959Z,11.40
2022-10-23T06:30:47.406Z,11.40
2022-10-23T06:31:49.053Z,11.30
2022-10-23T06:32:51.215Z,11.40
2022-10-23T06:33:54.068Z,11.40
2022-10-23T06:34:55.477Z,11.40
2022-10-23T06:35:57.377Z,11.40
2022-10-23T06:36:58.806Z,11.40
2022-10-23T06:38:23.390Z,11.40
2022-10-23T06:39:31.953Z,11.50
2022-10-23T06:41:04.098Z,11.50
2022-10-23T06:42:10.729Z,11.50
2022-10-23T06:43:31.567Z,11.50
2022-10-23T06:44:50.332Z,11.50
2022-10-23T06:46:04.324Z,11.50
2022-10-23T06:47:44.437Z,11.60
2022-10-23T06:49:04.976Z,11.60
2022-10-23T06:50:13.187Z,11.60
2022-10-23T06:51:18.563Z,11.50
2022-10-23T06:52:46.561Z,11.50
2022-10-23T06:53:41.872Z,11.60
2022-10-23T06:55:12.791Z,11.50
2022-10-23T06:56:14.334Z,11.60
2022-10-23T06:57:16.073Z,11.60
2022-10-23T06:58:20.453Z,11.60
2022-10-23T06:59:32.989Z,11.60
2022-10-23T07:00:35.761Z,11.60
2022-10-23T07:01:37.424Z,11.70
2022-10-23T07:02:40.470Z,11.70
2022-10-23T07:03:42.317Z,11.70
2022-10-23T07:04:44.085Z,11.70
2022-10-23T07:05:50.979Z,11.80
2022-10-23T07:06:57.130Z,11.80
2022-10-23T07:08:07.227Z,11.90
2022-10-23T07:09:14.687Z,12.00
2022-10-23T07:10:28.073Z,12.00
2022-10-23T07:11:32.332Z,12.00
2022-10-23T07:12:33.841Z,12.00
2022-10-23T07:13:58.103Z,12.00
2022-10-23T07:14:59.590Z,12.00
2022-10-23T07:16:19.457Z,12.10
2022-10-23T07:17:21.103Z,12.20
2022-10-23T07:18:22.869Z,12.20
2022-10-23T07:19:42.585Z,12.20
2022-10-23T07:20:49.467Z,12.20
2022-10-23T07:21:51.869Z,12.20
2022-10-23T07:23:16.078Z,12.20
2022-10-23T07:24:18.497Z,12.30
2022-10-23T07:25:21.616Z,12.30
2022-10-23T07:26:24.093Z,12.40
2022-10-23T07:27:26.383Z,12.40
2022-10-23T07:28:35.432Z,12.40
2022-10-23T07:29:37.410Z,12.40
2022-10-23T07:30:40.714Z,12.40
2022-10-23T07:31:42.649Z,12.50
2022-10-23T07:33:04.403Z,12.50
2022-10-23T07:34:21.951Z,12.60
2022-10-23T07:35:37.134Z,12.60
2022-10-23T07:36:44.407Z,12.70
2022-10-23T07:37:46.080Z,12.70
2022-10-23T07:38:47.894Z,12.70
2022-10-23T07:39:49.536Z,12.80
2022-10-23T07:40:51.308Z,12.80
2022-10-23T07:41:53.164Z,12.80
2022-10-23T07:42:55.215Z,12.90
2022-10-23T07:43:56.898Z,12.90
2022-10-23T07:44:58.459Z,12.90
2022-10-23T07:45:59.991Z,13.00
2022-10-23T07:47:07.648Z,13.00
2022-10-23T07:48:09.032Z,13.10
2022-10-23T07:49:30.543Z,13.10
2022-10-23T07:50:31.991Z,13.20
2022-10-23T07:51:33.741Z,13.20
2022-10-23T07:52:36.343Z,13.20
2022-10-23T07:53:45.639Z,13.20
2022-10-23T07:55:22.381Z,13.30
2022-10-23T07:56:43.059Z,13.40
2022-10-23T07:57:51.041Z,13.40
2022-10-23T07:59:18.521Z,13.40
2022-10-23T08:01:43.311Z,13.50
2022-10-23T08:02:45.416Z,13.60
2022-10-23T08:03:47.049Z,13.70
2022-10-23T08:04:51.623Z,13.80
2022-10-23T08:06:05.548Z,13.80
2022-10-23T08:07:07.463Z,13.90
2022-10-23T08:08:14.633Z,13.90
2022-10-23T08:09:19.388Z,14.00
2022-10-23T08:10:21.930Z,14.10
2022-10-23T08:11:28.962Z,14.10
2022-10-23T08:12:30.480Z,14.20
2022-10-23T08:13:32.531Z,14.20
2022-10-23T08:14:38.722Z,14.30
2022-10-23T08:15:41.185Z,14.40
2022-10-23T08:16:53.673Z,14.40
2022-10-23T08:18:15.527Z,14.50
2022-10-23T08:19:19.520Z,14.50
2022-10-23T08:20:23.416Z,14.60
2022-10-23T08:21:25.160Z,14.70
2022-10-23T08:22:28.116Z,14.70
2022-10-23T08:23:30.203Z,14.80
2022-10-23T08:24:31.876Z,14.80
2022-10-23T08:25:33.674Z,14.90
2022-10-23T08:26:35.141Z,15.00
2022-10-23T08:27:36.622Z,15.00
2022-10-23T08:28:39.231Z,15.10
2022-10-23T08:29:40.633Z,15.20
2022-10-23T08:30:42.076Z,15.20
2022-10-23T08:31:44.276Z,15.30
2022-10-23T08:32:48.292Z,15.40
2022-10-23T08:33:50.587Z,15.50
2022-10-23T08:34:52.133Z,15.60
2022-10-23T08:35:55.609Z,15.60
2022-10-23T08:37:03.681Z,15.70
2022-10-23T08:38:08.055Z,15.80
2022-10-23T08:39:14.593Z,15.80
2022-10-23T08:40:29.103Z,15.80
2022-10-23T08:42:00.005Z,15.90
2022-10-23T08:43:11.141Z,15.90
2022-10-23T08:44:36.208Z,16.00
2022-10-23T08:45:56.178Z,16.00
2022-10-23T08:47:37.564Z,16.10
2022-10-23T08:49:13.768Z,16.10
2022-10-23T08:50:41.331Z,16.10
2022-10-23T08:51:46.907Z,16.10
2022-10-23T08:52:52.758Z,16.10
2022-10-23T08:54:00.550Z,16.10
2022-10-23T08:55:29.206Z,16.10
2022-10-23T08:56:33.294Z,16.20
2022-10-23T08:57:43.724Z,16.20
2022-10-23T08:59:19.963Z,16.20
2022-10-23T09:00:21.582Z,16.20
2022-10-23T09:01:43.012Z,16.20
2022-10-23T09:02:53.254Z,16.30
2022-10-23T09:03:54.706Z,16.30
2022-10-23T09:04:58.242Z,16.30
2022-10-23T09:06:21.984Z,16.40
2022-10-23T09:07:46.718Z,16.40
2022-10-23T09:09:05.172Z,16.50
2022-10-23T09:10:15.378Z,16.50
2022-10-23T09:11:32.469Z,16.50
2022-10-23T09:12:34.022Z,16.50
2022-10-23T09:13:54.442Z,16.40
2022-10-23T09:15:13.585Z,16.40
2022-10-23T09:16:24.009Z,16.40
2022-10-23T09:17:30.667Z,16.50
2022-10-23T09:18:32.608Z,16.50
2022-10-23T09:19:34.807Z,16.60
2022-10-23T09:20:36.571Z,16.60
2022-10-23T09:21:38.209Z,16.70
2022-10-23T09:22:40.677Z,16.70
2022-10-23T09:23:42.565Z,16.80
2022-10-23T09:24:44.110Z,16.80
2022-10-23T09:25:47.358Z,16.80
2022-10-23T09:26:51.191Z,16.90
2022-10-23T09:27:56.804Z,16.90
2022-10-23T09:29:17.907Z,17.00
2022-10-23T09:30:29.473Z,17.00
2022-10-23T09:31:31.360Z,17.10
2022-10-23T09:32:35.802Z,17.10
2022-10-23T09:33:37.697Z,17.20
2022-10-23T09:34:51.651Z,17.20
2022-10-23T09:36:06.295Z,17.20
2022-10-23T09:37:28.819Z,17.30
2022-10-23T09:38:52.436Z,17.30
2022-10-23T09:40:19.164Z,17.40
2022-10-23T09:41:35.382Z,17.50
2022-10-23T09:42:37.185Z,17.50
2022-10-23T09:43:38.905Z,17.50
2022-10-23T09:44:51.026Z,17.50
2022-10-23T09:46:06.886Z,17.60
2022-10-23T09:47:11.991Z,17.70
2022-10-23T09:48:18.680Z,17.80
2022-10-23T09:49:28.821Z,17.90
2022-10-23T09:50:30.219Z,17.90
2022-10-23T09:51:31.671Z,18.00
2022-10-23T09:52:37.308Z,18.10
2022-10-23T09:53:48.302Z,18.10
2022-10-23T09:54:51.480Z,18.20
2022-10-23T09:55:55.625Z,18.30
2022-10-23T09:57:23.938Z,18.30
2022-10-23T09:58:34.268Z,18.30
2022-10-23T09:59:35.871Z,18.50
2022-10-23T10:00:46.957Z,18.50
2022-10-23T10:01:52.712Z,18.50
2022-10-23T10:03:22.212Z,18.50
2022-10-23T10:04:45.730Z,18.60
2022-10-23T10:05:56.084Z,18.70
2022-10-23T10:06:59.434Z,18.70
2022-10-23T10:08:25.828Z,18.80
2022-10-23T10:09:27.747Z,18.80
2022-10-23T10:10:37.563Z,18.90
2022-10-23T10:11:48.803Z,18.90
2022-10-23T10:13:01.860Z,18.90
2022-10-23T10:14:27.757Z,19.10
2022-10-23T10:15:46.316Z,19.00
2022-10-23T10:17:09.869Z,19.10
2022-10-23T10:18:20.974Z,19.00
2022-10-23T10:19:54.726Z,18.90
2022-10-23T10:21:15.940Z,18.80
2022-10-23T10:22:33.605Z,18.90
2022-10-23T10:23:50.262Z,18.80
2022-10-23T10:25:03.628Z,18.80
2022-10-23T10:28:08.001Z,18.90
2022-10-23T10:29:35.817Z,18.90
2022-10-23T10:30:54.855Z,19.00
2022-10-23T10:32:06.202Z,19.10
2022-10-23T10:33:29.101Z,19.10
2022-10-23T10:34:41.902Z,19.10
2022-10-23T10:36:02.004Z,19.20
2022-10-23T10:37:19.233Z,19.20
2022-10-23T10:38:40.569Z,19.10
2022-10-23T10:40:08.504Z,19.10
2022-10-23T10:41:18.530Z,19.20
2022-10-23T10:42:27.662Z,19.20
2022-10-23T10:43:43.735Z,19.30
2022-10-23T10:44:57.536Z,19.30
2022-10-23T10:46:21.985Z,19.40
2022-10-23T10:47:51.840Z,19.40
2022-10-23T10:49:10.556Z,19.50
2022-10-23T10:50:26.287Z,19.60
2022-10-23T10:51:54.534Z,19.60
2022-10-23T10:53:13.531Z,19.60
2022-10-23T10:54:48.159Z,19.60
2022-10-23T10:55:55.478Z,19.80
2022-10-23T10:57:00.231Z,19.90
2022-10-23T10:58:23.649Z,19.90
2022-10-23T10:59:30.805Z,19.90
2022-10-23T11:00:33.816Z,20.00
2022-10-23T11:01:45.745Z,20.00
2022-10-23T11:02:56.264Z,20.00
2022-10-23T11:04:17.874Z,20.10
2022-10-23T11:05:22.967Z,20.00
2022-10-23T11:06:29.858Z,20.10
2022-10-23T11:07:39.349Z,20.20
2022-10-23T11:08:56.213Z,20.20
2022-10-23T11:10:03.070Z,20.20
2022-10-23T11:11:11.714Z,20.30
2022-10-23T11:12:19.964Z,20.40
2022-10-23T11:13:34.336Z,20.60
2022-10-23T11:14:35.798Z,20.60
2022-10-23T11:15:43.123Z,20.70
2022-10-23T11:16:48.507Z,20.70
2022-10-23T11:18:03.942Z,20.80
2022-10-23T11:19:14.052Z,20.80
2022-10-23T11:20:53.582Z,20.90
2022-10-23T11:22:12.173Z,21.00
2022-10-23T11:23:29.113Z,20.90
2022-10-23T11:25:07.588Z,21.00
2022-10-23T11:26:24.015Z,21.10
2022-10-23T11:28:04.399Z,21.10
2022-10-23T11:29:26.088Z,21.20
2022-10-23T11:30:33.309Z,21.30
2022-10-23T11:31:51.081Z,21.30
2022-10-23T11:33:04.268Z,21.10
2022-10-23T11:34:23.598Z,21.10
2022-10-23T11:35:25.069Z,21.20
2022-10-23T11:37:03.717Z,21.30
2022-10-23T11:38:33.186Z,21.40
2022-10-23T11:39:36.565Z,21.40
2022-10-23T11:41:54.662Z,21.60
2022-10-23T11:42:56.078Z,21.50
2022-10-23T11:44:06.321Z,21.50
2022-10-23T11:45:28.704Z,21.40
2022-10-23T11:46:35.912Z,21.30
2022-10-23T11:47:40.557Z,21.40
2022-10-23T11:48:44.005Z,21.50
2022-10-23T11:49:45.435Z,21.50
2022-10-23T11:50:47.393Z,21.50
2022-10-23T11:52:00.576Z,21.50
2022-10-23T11:53:14.792Z,21.40
2022-10-23T11:54:24.971Z,21.40
2022-10-23T11:55:31.715Z,21.50
2022-10-23T11:56:34.196Z,21.40
2022-10-23T11:57:35.637Z,21.40
2022-10-23T11:58:52.828Z,21.40
2022-10-23T11:59:57.071Z,21.40
2022-10-23T12:01:04.185Z,21.30
2022-10-23T12:02:23.508Z,21.30
2022-10-23T12:03:32.094Z,21.30
2022-10-23T12:04:45.328Z,21.20
2022-10-23T12:05:46.996Z,21.30
2022-10-23T12:06:55.519Z,21.30
2022-10-23T12:08:00.215Z,21.40
2022-10-23T12:09:06.814Z,21.40
2022-10-23T12:10:20.622Z,21.40
2022-10-23T12:11:41.371Z,21.30
2022-10-23T12:12:43.169Z,21.30
2022-10-23T12:13:46.439Z,21.40
2022-10-23T12:14:50.659Z,21.40
2022-10-23T12:15:58.503Z,21.30
2022-10-23T12:17:03.069Z,21.30
2022-10-23T12:18:18.251Z,21.30
2022-10-23T12:19:23.223Z,21.30
2022-10-23T12:20:36.456Z,21.40
2022-10-23T12:21:38.857Z,21.40
2022-10-23T12:23:02.172Z,21.40
2022-10-23T12:24:17.380Z,21.40
2022-10-23T12:25:40.159Z,21.40
2022-10-23T12:27:12.775Z,21.50
2022-10-23T12:28:29.315Z,21.40
2022-10-23T12:29:54.286Z,21.40
2022-10-23T12:31:23.783Z,21.30
2022-10-23T12:32:43.740Z,21.30
2022-10-23T12:33:56.686Z,21.30
2022-10-23T12:35:27.533Z,21.30
2022-10-23T12:36:56.073Z,21.40
2022-10-23T12:38:00.325Z,21.50
2022-10-23T12:42:02.611Z,21.60
2022-10-23T12:43:20.753Z,21.60
2022-10-23T12:44:25.607Z,21.60
2022-10-23T12:45:40.188Z,21.60
2022-10-23T12:46:46.914Z,21.50
2022-10-23T12:47:49.874Z,21.50
2022-10-23T12:48:53.296Z,21.50
2022-10-23T12:49:54.989Z,21.40
2022-10-23T12:50:57.349Z,21.40
2022-10-23T12:52:15.050Z,21.40
2022-10-23T12:53:19.604Z,21.40
2022-10-23T12:54:22.568Z,21.50
2022-10-23T12:55:26.142Z,21.60
2022-10-23T12:56:35.279Z,21.70
2022-10-23T12:57:44.279Z,21.70
2022-10-23T12:58:51.201Z,21.90
2022-10-23T13:00:02.300Z,21.90
2022-10-23T13:01:07.008Z,22.00
2022-10-23T13:02:34.846Z,22.00
2022-10-23T13:03:38.603Z,22.10
2022-10-23T13:04:41.135Z,22.20
2022-10-23T13:05:42.949Z,22.20
2022-10-23T13:06:44.710Z,22.20
2022-10-23T13:07:48.415Z,22.20
2022-10-23T13:08:53.698Z,22.10
2022-10-23T13:10:21.868Z,22.20
2022-10-23T13:11:31.083Z,22.30
2022-10-23T13:12:39.056Z,22.30
2022-10-23T13:13:41.958Z,22.40
2022-10-23T13:14:55.128Z,22.40
2022-10-23T13:15:56.593Z,22.50
2022-10-23T13:17:02.882Z,22.60
2022-10-23T13:18:07.025Z,22.60
2022-10-23T13:19:26.083Z,22.40
2022-10-23T13:20:29.810Z,22.40
2022-10-23T13:21:32.707Z,22.50
2022-10-23T13:22:34.408Z,22.40
2022-10-23T13:23:36.425Z,22.40
2022-10-23T13:24:41.154Z,22.40
2022-10-23T13:25:42.955Z,22.40
2022-10-23T13:26:47.400Z,22.40
2022-10-23T13:27:48.995Z,22.40
2022-10-23T13:28:50.931Z,22.40
2022-10-23T13:29:52.856Z,22.30
2022-10-23T13:31:07.344Z,22.30
2022-10-23T13:32:21.834Z,22.30
2022-10-23T13:33:35.579Z,22.30
2022-10-23T13:34:37.154Z,22.30
2022-10-23T13:35:38.536Z,22.30
2022-10-23T13:36:53.581Z,22.40
2022-10-23T13:37:55.231Z,22.40
2022-10-23T13:39:00.179Z,22.50
2022-10-23T13:40:10.473Z,22.50
2022-10-23T13:41:20.277Z,22.50
2022-10-23T13:42:21.677Z,22.50
2022-10-23T13:43:25.883Z,22.50
2022-10-23T13:44:27.709Z,22.50
2022-10-23T13:45:29.117Z,22.50
2022-10-23T13:46:30.871Z,22.40
2022-10-23T13:47:32.289Z,22.40
2022-10-23T13:48:33.754Z,22.40
2022-10-23T13:49:35.176Z,22.40
2022-10-23T13:50:36.543Z,22.50
2022-10-23T13:51:53.190Z,22.40
2022-10-23T13:52:54.606Z,22.40
2022-10-23T13:53:57.620Z,22.40
2022-10-23T13:54:58.978Z,22.40
2022-10-23T13:56:00.362Z,22.40
2022-10-23T13:57:01.758Z,22.40
2022-10-23T13:58:03.175Z,22.40
2022-10-23T13:59:04.627Z,22.40
2022-10-23T14:00:07.456Z,22.30
2022-10-23T14:01:22.956Z,22.20
2022-10-23T14:02:24.980Z,22.10
2022-10-23T14:03:26.539Z,22.00
2022-10-23T14:04:27.994Z,21.90
2022-10-23T14:05:30.399Z,21.90
2022-10-23T14:06:32.684Z,21.70
2022-10-23T14:07:34.089Z,21.60
2022-10-23T14:08:35.478Z,21.60
2022-10-23T14:09:36.861Z,21.60
2022-10-23T14:10:38.392Z,21.50
2022-10-23T14:11:40.540Z,21.50
2022-10-23T14:12:43.343Z,21.40
2022-10-23T14:13:45.438Z,21.40
2022-10-23T14:14:51.714Z,21.50
2022-10-23T14:15:54.446Z,21.50
2022-10-23T14:16:56.328Z,21.50
2022-10-23T14:17:59.520Z,21.50
2022-10-23T14:19:03.386Z,21.50
2022-10-23T14:20:06.586Z,21.50
2022-10-23T14:21:10.575Z,21.40
2022-10-23T14:22:12.435Z,21.40
2022-10-23T14:23:13.861Z,21.30
2022-10-23T14:24:15.482Z,21.20
2022-10-23T14:25:17.128Z,21.10
2022-10-23T14:26:22.281Z,21.00
2022-10-23T14:27:23.759Z,21.00
2022-10-23T14:28:25.297Z,20.90
2022-10-23T14:29:26.917Z,20.80
2022-10-23T14:30:28.774Z,20.70
2022-10-23T14:31:30.493Z,20.70
2022-10-23T14:32:31.925Z,20.70
2022-10-23T14:33:33.602Z,20.70
2022-10-23T14:34:35.386Z,20.70
2022-10-23T14:35:40.978Z,20.60
2022-10-23T14:36:49.948Z,20.50
2022-10-23T14:37:52.621Z,20.60
2022-10-23T14:38:58.552Z,20.60
2022-10-23T14:40:00.655Z,20.60
2022-10-23T14:41:02.416Z,20.60
2022-10-23T14:42:04.247Z,20.60
2022-10-23T14:43:06.330Z,20.60
2022-10-23T14:44:07.816Z,20.60
2022-10-23T14:45:09.892Z,20.70
2022-10-23T14:46:13.301Z,20.70
2022-10-23T14:47:14.898Z,20.70
2022-10-23T14:48:16.474Z,20.70
2022-10-23T14:49:17.877Z,20.70
2022-10-23T14:50:19.382Z,20.70
2022-10-23T14:51:26.637Z,20.70
2022-10-23T14:52:28.438Z,20.60